createdAt,value
2023-03-06T00:00:54.870Z,7.16
2023-03-06T00:03:23.220Z,7.14
2023-03-06T00:05:51.302Z,7.13
2023-03-06T00:08:19.322Z,7.13
2023-03-06T00:10:47.507Z,7.11
2023-03-06T00:13:16.511Z,7.10
2023-03-06T00:15:44.900Z,7.09
2023-03-06T00:18:13.165Z,7.08
2023-03-06T00:20:42.372Z,7.07
2023-03-06T00:23:11.138Z,7.05
2023-03-06T00:25:42.307Z,7.04
2023-03-06T00:28:10.392Z,7.02
2023-03-06T00:30:38.774Z,7.01
2023-03-06T00:33:06.852Z,7.02
2023-03-06T00:35:34.849Z,7.01
2023-03-06T00:38:02.901Z,7.00
2023-03-06T00:40:30.869Z,7.00
2023-03-06T00:42:58.964Z,6.99
2023-03-06T00:45:26.952Z,6.97
2023-03-06T00:47:55.096Z,6.96
2023-03-06T00:50:22.981Z,6.95
2023-03-06T00:52:51.048Z,6.96
2023-03-06T00:55:19.027Z,6.95
2023-03-06T00:57:47.101Z,6.94
2023-03-06T01:00:15.334Z,6.93
2023-03-06T01:02:43.463Z,6.91
2023-03-06T01:05:13.279Z,6.90
2023-03-06T01:07:41.354Z,6.88
2023-03-06T01:10:09.980Z,6.86
2023-03-06T01:12:38.123Z,6.87
2023-03-06T01:15:07.106Z,6.85
2023-03-06T01:17:36.115Z,6.85
2023-03-06T01:20:05.021Z,6.83
2023-03-06T01:22:32.979Z,6.82
2023-03-06T01:25:01.158Z,6.81
2023-03-06T01:27:29.138Z,6.80
2023-03-06T01:29:57.213Z,6.78
2023-03-06T01:32:25.138Z,6.75
2023-03-06T01:34:53.263Z,6.73
2023-03-06T01:37:21.239Z,6.71
2023-03-06T01:39:49.305Z,6.70
2023-03-06T01:42:17.492Z,6.69
2023-03-06T01:45:00.714Z,6.68
2023-03-06T01:47:28.997Z,6.66
2023-03-06T01:49:58.089Z,6.63
2023-03-06T01:52:28.526Z,6.61
2023-03-06T01:55:07.553Z,6.59
2023-03-06T01:57:38.712Z,6.56
2023-03-06T02:00:11.988Z,6.55
2023-03-06T02:02:47.577Z,6.54
2023-03-06T02:05:16.253Z,6.52
2023-03-06T02:07:45.335Z,6.49
2023-03-06T02:10:15.772Z,6.48
2023-03-06T02:12:44.140Z,6.46
2023-03-06T02:15:14.067Z,6.44
2023-03-06T02:17:42.441Z,6.43
2023-03-06T02:20:13.518Z,6.40
2023-03-06T02:22:52.422Z,6.37
2023-03-06T02:25:23.260Z,6.34
2023-03-06T02:27:51.298Z,6.32
2023-03-06T02:30:19.334Z,6.30
2023-03-06T02:32:47.265Z,6.28
2023-03-06T02:35:18.339Z,6.26
2023-03-06T02:37:46.923Z,6.22
2023-03-06T02:40:17.458Z,6.20
2023-03-06T02:42:49.616Z,6.18
2023-03-06T02:45:21.588Z,6.15
2023-03-06T02:47:49.654Z,6.11
2023-03-06T02:50:17.741Z,6.08
2023-03-06T02:52:45.910Z,6.07
2023-03-06T02:55:13.987Z,6.04
2023-03-06T02:57:42.157Z,6.01
2023-03-06T03:00:10.646Z,5.97
2023-03-06T03:02:38.833Z,5.94
2023-03-06T03:05:07.410Z,5.92
2023-03-06T03:07:36.416Z,5.89
2023-03-06T03:10:04.896Z,5.87
2023-03-06T03:12:33.377Z,5.85
2023-03-06T03:15:01.458Z,5.84
2023-03-06T03:17:29.740Z,5.83
2023-03-06T03:19:58.227Z,5.82
2023-03-06T03:22:26.286Z,5.80
2023-03-06T03:24:54.294Z,5.78
2023-03-06T03:27:22.428Z,5.75
2023-03-06T03:29:50.742Z,5.73
2023-03-06T03:32:19.648Z,5.71
2023-03-06T03:34:47.813Z,5.69
2023-03-06T03:37:16.097Z,5.66
2023-03-06T03:39:44.277Z,5.64
2023-03-06T03:42:12.964Z,5.62
2023-03-06T03:44:41.353Z,5.61
2023-03-06T03:47:09.523Z,5.59
2023-03-06T03:49:38.935Z,5.55
2023-03-06T03:52:07.213Z,5.52
2023-03-06T03:54:36.629Z,5.51
2023-03-06T03:57:04.903Z,5.48
2023-03-06T03:59:35.125Z,5.45
2023-03-06T04:02:32.274Z,5.41
2023-03-06T04:05:08.102Z,5.39
2023-03-06T04:07:36.502Z,5.39
2023-03-06T04:10:05.974Z,5.37
2023-03-06T04:12:33.979Z,5.34
2023-03-06T04:15:02.779Z,5.32
2023-03-06T04:17:34.194Z,5.31
2023-03-06T04:20:05.026Z,5.29
2023-03-06T04:22:33.657Z,5.29
2023-03-06T04:25:01.862Z,5.29
2023-03-06T04:27:30.017Z,5.29
2023-03-06T04:29:58.198Z,5.29
2023-03-06T04:32:26.488Z,5.28
2023-03-06T04:34:55.066Z,5.28
2023-03-06T04:37:25.019Z,5.27
2023-03-06T04:39:53.321Z,5.26
2023-03-06T04:42:21.445Z,5.24
2023-03-06T04:44:49.488Z,5.22
2023-03-06T04:47:19.115Z,5.20
2023-03-06T04:49:47.724Z,5.19
2023-03-06T04:52:15.897Z,5.18
2023-03-06T04:54:43.766Z,5.18
2023-03-06T04:57:11.662Z,5.18
2023-03-06T04:59:39.835Z,5.17
2023-03-06T05:02:07.910Z,5.17
2023-03-06T05:04:35.969Z,5.17
2023-03-06T05:07:04.349Z,5.16
2023-03-06T05:09:33.776Z,5.14
2023-03-06T05:12:02.246Z,5.13
2023-03-06T05:14:30.833Z,5.12
2023-03-06T05:16:58.727Z,5.10
2023-03-06T05:19:26.777Z,5.09
2023-03-06T05:21:54.958Z,5.08
2023-03-06T05:24:22.985Z,5.08
2023-03-06T05:26:50.908Z,5.07
2023-03-06T05:29:19.281Z,5.07
2023-03-06T05:31:47.514Z,5.07
2023-03-06T05:34:16.375Z,5.06
2023-03-06T05:36:44.578Z,5.06
2023-03-06T05:39:13.331Z,5.05
2023-03-06T05:41:41.222Z,5.05
2023-03-06T05:44:09.185Z,5.05
2023-03-06T05:46:38.295Z,5.04
2023-03-06T05:49:06.255Z,5.03
2023-03-06T05:51:34.234Z,5.04
2023-03-06T05:54:02.208Z,5.03
2023-03-06T05:56:30.078Z,5.03
2023-03-06T05:58:58.151Z,5.03
2023-03-06T06:01:28.587Z,5.03
2023-03-06T06:03:56.552Z,5.03
2023-03-06T06:06:24.531Z,5.02
2023-03-06T06:08:52.498Z,5.03
2023-03-06T06:11:21.297Z,5.03
2023-03-06T06:13:49.681Z,5.02
2023-03-06T06:16:19.147Z,5.03
2023-03-06T06:18:47.259Z,5.04
2023-03-06T06:21:15.965Z,5.04
2023-03-06T06:23:44.230Z,5.05
2023-03-06T06:26:12.294Z,5.05
2023-03-06T06:28:40.183Z,5.06
2023-03-06T06:31:12.900Z,5.06
2023-03-06T06:33:41.586Z,5.07
2023-03-06T06:36:16.905Z,5.08
2023-03-06T06:38:44.986Z,5.10
2023-03-06T06:41:36.125Z,5.11
2023-03-06T06:44:01.281Z,5.11
2023-03-06T06:49:17.907Z,5.16
2023-03-06T06:51:45.977Z,5.17
2023-03-06T06:54:14.162Z,5.19
2023-03-06T06:56:42.139Z,5.21
2023-03-06T06:59:16.490Z,5.22
2023-03-06T07:01:45.527Z,5.24
2023-03-06T07:04:14.306Z,5.25
2023-03-06T07:06:42.996Z,5.28
2023-03-06T07:09:12.123Z,5.30
2023-03-06T07:11:40.843Z,5.34
2023-03-06T07:14:08.898Z,5.37
2023-03-06T07:16:36.980Z,5.40
2023-03-06T07:19:05.369Z,5.43
2023-03-06T07:21:33.336Z,5.46
2023-03-06T07:24:01.318Z,5.48
2023-03-06T07:26:32.102Z,5.51
2023-03-06T07:29:01.657Z,5.55
2023-03-06T07:31:29.667Z,5.58
2023-03-06T07:33:57.943Z,5.61
2023-03-06T07:36:26.129Z,5.64
2023-03-06T07:38:54.379Z,5.66
2023-03-06T07:41:22.762Z,5.69
2023-03-06T07:43:50.948Z,5.71
2023-03-06T07:46:19.612Z,5.73
2023-03-06T07:48:47.611Z,5.75
2023-03-06T07:51:17.115Z,5.77
2023-03-06T07:53:45.226Z,5.80
2023-03-06T07:56:13.681Z,5.83
2023-03-06T07:58:43.201Z,5.85
2023-03-06T08:01:12.899Z,5.87
2023-03-06T08:03:41.029Z,5.90
2023-03-06T08:06:10.580Z,5.94
2023-03-06T08:08:39.795Z,5.99
2023-03-06T08:11:08.491Z,6.04
2023-03-06T08:13:36.763Z,6.08
2023-03-06T08:16:05.507Z,6.10
2023-03-06T08:18:33.949Z,6.13
2023-03-06T08:21:13.160Z,6.16
2023-03-06T08:23:41.754Z,6.20
2023-03-06T08:26:17.813Z,6.23
2023-03-06T08:28:46.101Z,6.27
2023-03-06T08:31:19.904Z,6.31
2023-03-06T08:33:47.879Z,6.35
2023-03-06T08:36:15.848Z,6.39
2023-03-06T08:38:44.038Z,6.44
2023-03-06T08:41:12.105Z,6.48
2023-03-06T08:43:40.484Z,6.53
2023-03-06T08:46:10.200Z,6.57
2023-03-06T08:48:38.986Z,6.63
2023-03-06T08:51:08.698Z,6.68
2023-03-06T08:53:43.152Z,6.73
2023-03-06T08:56:19.518Z,6.76
2023-03-06T08:58:48.106Z,6.81
2023-03-06T09:01:21.532Z,6.85
2023-03-06T09:03:50.474Z,6.89
2023-03-06T09:06:18.265Z,6.93
2023-03-06T09:08:46.236Z,6.97
2023-03-06T09:11:15.245Z,7.01
2023-03-06T09:13:43.590Z,7.06
2023-03-06T09:16:12.150Z,7.09
2023-03-06T09:18:40.484Z,7.13
2023-03-06T09:21:09.278Z,7.17
2023-03-06T09:23:39.529Z,7.21
2023-03-06T09:26:08.180Z,7.24
2023-03-06T09:28:38.971Z,7.30
2023-03-06T09:31:08.046Z,7.34
2023-03-06T09:33:36.301Z,7.38
2023-03-06T09:36:04.993Z,7.42
2023-03-06T09:38:33.280Z,7.46
2023-03-06T09:41:22.366Z,7.50
2023-03-06T09:43:52.359Z,7.55
2023-03-06T09:46:25.257Z,7.59
2023-03-06T09:49:12.034Z,7.62
2023-03-06T09:51:49.433Z,7.65
2023-03-06T09:54:19.542Z,7.69
2023-03-06T09:56:49.147Z,7.72
2023-03-06T09:59:22.078Z,7.75
2023-03-06T10:01:56.442Z,7.79
2023-03-06T10:04:50.754Z,7.82
2023-03-06T10:07:18.699Z,7.85
2023-03-06T10:09:51.707Z,7.88
2023-03-06T10:12:25.000Z,7.92
2023-03-06T10:15:07.394Z,7.97
2023-03-06T10:17:37.838Z,8.02
2023-03-06T10:20:25.442Z,8.05
2023-03-06T10:23:05.177Z,8.10
2023-03-06T10:25:38.591Z,8.15
2023-03-06T10:28:12.493Z,8.19
2023-03-06T10:30:40.476Z,8.22
2023-03-06T10:33:27.073Z,8.26
2023-03-06T10:35:56.362Z,8.31
2023-03-06T10:38:33.152Z,8.35
2023-03-06T10:41:01.129Z,8.39
2023-03-06T10:43:29.159Z,8.43
2023-03-06T10:45:57.376Z,8.47
2023-03-06T10:48:27.508Z,8.51
2023-03-06T10:51:18.088Z,8.56
2023-03-06T10:53:51.707Z,8.60
2023-03-06T10:56:28.986Z,8.64
2023-03-06T10:59:12.308Z,8.69
2023-03-06T11:01:41.658Z,8.72
2023-03-06T11:04:17.390Z,8.76
2023-03-06T11:06:45.438Z,8.80
2023-03-06T11:09:15.775Z,8.85
2023-03-06T11:11:43.844Z,8.89
2023-03-06T11:14:15.091Z,8.94
2023-03-06T11:16:52.899Z,8.99
2023-03-06T11:19:25.695Z,9.04
2023-03-06T11:22:02.451Z,9.07
2023-03-06T11:24:39.736Z,9.10
2023-03-06T11:27:30.630Z,9.14
2023-03-06T11:30:00.164Z,9.18
2023-03-06T11:32:30.323Z,9.20
2023-03-06T11:35:05.911Z,9.23
2023-03-06T11:37:34.081Z,9.26
2023-03-06T11:40:11.172Z,9.30
2023-03-06T11:42:42.103Z,9.34
2023-03-06T11:45:19.213Z,9.39
2023-03-06T11:47:54.462Z,9.42
2023-03-06T11:50:31.209Z,9.45
2023-03-06T11:53:01.769Z,9.49
2023-03-06T11:55:56.097Z,9.53
2023-03-06T11:58:27.065Z,9.58
2023-03-06T12:01:01.536Z,9.62
2023-03-06T12:03:38.667Z,9.65
2023-03-06T12:06:25.677Z,9.70
2023-03-06T12:09:12.078Z,9.75
2023-03-06T12:11:43.721Z,9.79
2023-03-06T12:14:19.890Z,9.83
2023-03-06T12:16:58.708Z,9.86
2023-03-06T12:19:53.529Z,9.91
2023-03-06T12:22:57.543Z,9.95
2023-03-06T12:25:32.023Z,10.00
2023-03-06T12:28:19.270Z,10.04
2023-03-06T12:30:52.984Z,10.07
2023-03-06T12:33:26.423Z,10.11
2023-03-06T12:36:12.827Z,10.14
2023-03-06T12:38:41.009Z,10.16
2023-03-06T12:41:15.361Z,10.18
2023-03-06T12:43:43.401Z,10.21
2023-03-06T12:46:20.521Z,10.23
2023-03-06T12:48:55.828Z,10.24
2023-03-06T12:51:24.721Z,10.26
2023-03-06T12:53:53.514Z,10.27
2023-03-06T12:56:22.305Z,10.29
2023-03-06T12:58:51.832Z,10.31
2023-03-06T13:01:41.616Z,10.33
2023-03-06T13:04:18.560Z,10.36
2023-03-06T13:06:51.421Z,10.38
2023-03-06T13:09:51.865Z,10.41
2023-03-06T13:12:32.020Z,10.44
2023-03-06T13:15:19.038Z,10.46
2023-03-06T13:17:47.117Z,10.49
2023-03-06T13:20:15.176Z,10.53
2023-03-06T13:22:44.382Z,10.55
2023-03-06T13:25:21.429Z,10.59
2023-03-06T13:27:52.417Z,10.62
2023-03-06T13:30:23.746Z,10.65
2023-03-06T13:32:55.107Z,10.68
2023-03-06T13:35:32.364Z,10.72
2023-03-06T13:38:00.846Z,10.75
2023-03-06T13:40:37.859Z,10.77
2023-03-06T13:43:08.849Z,10.80
2023-03-06T13:45:43.325Z,10.82
2023-03-06T13:48:47.650Z,10.84
2023-03-06T13:51:24.427Z,10.87
2023-03-06T13:54:08.438Z,10.90
2023-03-06T13:56:39.892Z,10.92
2023-03-06T13:59:13.151Z,10.95
2023-03-06T14:01:50.238Z,10.96
2023-03-06T14:04:47.504Z,10.97
2023-03-06T14:07:18.649Z,11.00
2023-03-06T14:09:55.402Z,11.01
2023-03-06T14:12:30.457Z,11.01
2023-03-06T14:15:00.048Z,11.02
2023-03-06T14:17:33.268Z,11.03
2023-03-06T14:20:06.162Z,11.04
2023-03-06T14:22:34.127Z,11.05
2023-03-06T14:25:25.937Z,11.07
2023-03-06T14:27:58.207Z,11.09
2023-03-06T14:30:28.873Z,11.11
2023-03-06T14:32:57.340Z,11.13
2023-03-06T14:35:30.166Z,11.15
2023-03-06T14:38:03.937Z,11.18
2023-03-06T14:40:52.468Z,11.20
2023-03-06T14:43:21.994Z,11.23
2023-03-06T14:45:51.291Z,11.25
2023-03-06T14:48:19.269Z,11.27
2023-03-06T14:50:57.065Z,11.29
2023-03-06T14:53:29.540Z,11.32
2023-03-06T14:56:00.586Z,11.34
2023-03-06T14:58:36.647Z,11.35
2023-03-06T15:01:11.315Z,11.37
2023-03-06T15:03:48.665Z,11.36
2023-03-06T15:06:19.706Z,11.36
2023-03-06T15:08:49.419Z,11.37
2023-03-06T15:11:17.498Z,11.37
2023-03-06T15:13:59.797Z,11.37
2023-03-06T15:16:30.154Z,11.37
2023-03-06T15:19:02.722Z,11.36
2023-03-06T15:21:38.248Z,11.36
2023-03-06T15:24:25.001Z,11.35
2023-03-06T15:26:54.865Z,11.32
2023-03-06T15:29:23.248Z,11.31
2023-03-06T15:31:51.303Z,11.29
2023-03-06T15:34:23.709Z,11.28
2023-03-06T15:36:54.330Z,11.25
2023-03-06T15:39:39.305Z,11.24
2023-03-06T15:42:13.306Z,11.22
2023-03-06T15:44:41.608Z,11.21
2023-03-06T15:47:11.508Z,11.20
2023-03-06T15:49:39.797Z,11.19
2023-03-06T15:52:08.009Z,11.17
2023-03-06T15:54:36.035Z,11.13
2023-03-06T15:57:05.356Z,11.10
2023-03-06T15:59:35.783Z,11.07
2023-03-06T16:02:11.839Z,11.03
2023-03-06T16:04:40.015Z,11.00
2023-03-06T16:07:08.814Z,10.97
2023-03-06T16:09:37.299Z,10.95
2023-03-06T16:12:05.895Z,10.92
2023-03-06T16:14:34.165Z,10.89
2023-03-06T16:17:02.180Z,10.86
2023-03-06T16:19:30.425Z,10.83
2023-03-06T16:21:59.324Z,10.78
2023-03-06T16:24:27.370Z,10.75
2023-03-06T16:26:55.468Z,10.71
2023-03-06T16:29:25.586Z,10.69
2023-03-06T16:31:55.225Z,10.66
2023-03-06T16:34:23.785Z,10.63
2023-03-06T16:36:51.861Z,10.61
2023-03-06T16:39:21.716Z,10.58
2023-03-06T16:41:50.377Z,10.56
2023-03-06T16:44:18.650Z,10.54
2023-03-06T16:46:47.449Z,10.52
2023-03-06T16:49:17.072Z,10.48
2023-03-06T16:51:45.551Z,10.45
2023-03-06T16:54:14.239Z,10.43
2023-03-06T16:56:42.621Z,10.40
2023-03-06T16:59:11.308Z,10.36
2023-03-06T17:01:40.248Z,10.32
2023-03-06T17:04:08.559Z,10.28
2023-03-06T17:06:36.673Z,10.25
2023-03-06T17:09:05.043Z,10.21
2023-03-06T17:11:33.124Z,10.18
2023-03-06T17:14:01.557Z,10.14
2023-03-06T17:16:29.615Z,10.11
2023-03-06T17:18:58.261Z,10.07
2023-03-06T17:21:27.181Z,10.04
2023-03-06T17:23:55.639Z,10.00
2023-03-06T17:26:23.834Z,9.97
2023-03-06T17:28:51.840Z,9.93
2023-03-06T17:31:25.511Z,9.89
2023-03-06T17:33:59.928Z,9.88
2023-03-06T17:36:28.545Z,9.84
2023-03-06T17:38:57.350Z,9.80
2023-03-06T17:41:25.803Z,9.78
2023-03-06T17:43:57.935Z,9.75
2023-03-06T17:46:26.300Z,9.73
2023-03-06T17:48:54.835Z,9.71
2023-03-06T17:51:22.920Z,9.68
2023-03-06T17:53:52.244Z,9.65
2023-03-06T17:56:20.404Z,9.62
2023-03-06T17:58:48.673Z,9.58
2023-03-06T18:01:18.629Z,9.52
2023-03-06T18:03:48.408Z,9.48
2023-03-06T18:06:17.712Z,9.44
2023-03-06T18:08:46.206Z,9.41
2023-03-06T18:11:14.368Z,9.38
2023-03-06T18:13:43.388Z,9.34
2023-03-06T18:16:12.542Z,9.32
2023-03-06T18:18:40.863Z,9.29
2023-03-06T18:21:10.364Z,9.26
2023-03-06T18:23:39.069Z,9.24
2023-03-06T18:26:09.446Z,9.23
2023-03-06T18:28:40.642Z,9.21
2023-03-06T18:31:15.649Z,9.18
2023-03-06T18:33:44.265Z,9.15
2023-03-06T18:36:12.235Z,9.12
2023-03-06T18:38:41.645Z,9.09
2023-03-06T18:41:10.638Z,9.05
2023-03-06T18:43:39.128Z,9.02
2023-03-06T18:46:07.267Z,9.00
2023-03-06T18:48:36.061Z,8.98
2023-03-06T18:51:05.415Z,8.96
2023-03-06T18:53:33.794Z,8.95
2023-03-06T18:56:02.572Z,8.94
2023-03-06T18:58:30.769Z,8.91
2023-03-06T19:01:01.046Z,8.90
2023-03-06T19:03:29.070Z,8.89
2023-03-06T19:05:57.243Z,8.88
2023-03-06T19:08:25.554Z,8.86
2023-03-06T19:10:53.611Z,8.84
2023-03-06T19:13:21.682Z,8.81
2023-03-06T19:15:49.661Z,8.79
2023-03-06T19:18:18.253Z,8.75
2023-03-06T19:20:46.504Z,8.73
2023-03-06T19:23:14.601Z,8.71
2023-03-06T19:25:42.778Z,8.70
2023-03-06T19:28:10.756Z,8.68
2023-03-06T19:30:42.008Z,8.66
2023-03-06T19:33:09.980Z,8.65
2023-03-06T19:35:38.291Z,8.64
2023-03-06T19:38:06.236Z,8.62
2023-03-06T19:40:35.537Z,8.61
2023-03-06T19:43:04.127Z,8.60
2023-03-06T19:45:32.253Z,8.59
2023-03-06T19:48:01.099Z,8.58
2023-03-06T19:50:29.843Z,8.57
2023-03-06T19:52:58.180Z,8.55
2023-03-06T19:55:28.811Z,8.54
2023-03-06T19:57:56.786Z,8.53
2023-03-06T20:00:24.910Z,8.51
2023-03-06T20:02:53.262Z,8.50
2023-03-06T20:05:21.425Z,8.48
2023-03-06T20:07:49.912Z,8.47
2023-03-06T20:10:18.492Z,8.45
2023-03-06T20:12:46.468Z,8.44
2023-03-06T20:15:14.330Z,8.43
2023-03-06T20:17:42.201Z,8.42
2023-03-06T20:20:10.953Z,8.42
2023-03-06T20:22:39.194Z,8.41
2023-03-06T20:25:07.664Z,8.39
2023-03-06T20:27:35.739Z,8.38
2023-03-06T20:30:06.422Z,8.37
2023-03-06T20:32:36.135Z,8.36
2023-03-06T20:35:04.673Z,8.35
2023-03-06T20:37:32.539Z,8.33
2023-03-06T20:40:00.514Z,8.31
2023-03-06T20:42:28.594Z,8.29
2023-03-06T20:44:56.481Z,8.28
2023-03-06T20:47:24.445Z,8.25
2023-03-06T20:49:52.314Z,8.24
2023-03-06T20:52:20.388Z,8.22
2023-03-06T20:54:48.574Z,8.21
2023-03-06T20:57:16.541Z,8.20
2023-03-06T20:59:45.540Z,8.18
2023-03-06T21:02:15.046Z,8.18
2023-03-06T21:04:43.365Z,8.16
2023-03-06T21:07:11.402Z,8.15
2023-03-06T21:09:39.805Z,8.14
2023-03-06T21:12:07.868Z,8.14
2023-03-06T21:14:36.070Z,8.13
2023-03-06T21:17:04.126Z,8.12
2023-03-06T21:19:32.305Z,8.11
2023-03-06T21:22:00.377Z,8.11
2023-03-06T21:24:28.665Z,8.10
2023-03-06T21:26:56.744Z,8.09
2023-03-06T21:29:24.919Z,8.09
2023-03-06T21:31:53.013Z,8.09
2023-03-06T21:34:21.280Z,8.06
2023-03-06T21:36:49.250Z,8.06
2023-03-06T21:39:17.228Z,8.05
2023-03-06T21:41:45.199Z,8.04
2023-03-06T21:44:13.168Z,8.04
2023-03-06T21:46:41.147Z,8.04
2023-03-06T21:49:09.054Z,8.03
2023-03-06T21:51:37.205Z,8.02
2023-03-06T21:54:06.192Z,8.01
2023-03-06T21:56:34.270Z,8.01
2023-03-06T21:59:02.140Z,8.01
2023-03-06T22:01:30.518Z,8.02
2023-03-06T22:03:59.952Z,8.01
2023-03-06T22:06:29.155Z,8.00
2023-03-06T22:08:58.637Z,8.02
2023-03-06T22:11:28.263Z,8.03
2023-03-06T22:13:56.395Z,8.03
2023-03-06T22:16:24.777Z,8.04
2023-03-06T22:18:52.988Z,8.04
2023-03-06T22:21:22.203Z,8.03
2023-03-06T22:23:55.488Z,8.03
2023-03-06T22:26:23.706Z,8.03
2023-03-06T22:28:51.760Z,8.04
2023-03-06T22:31:21.531Z,8.04
2023-03-06T22:33:53.526Z,8.04
2023-03-06T22:36:22.218Z,8.05
2023-03-06T22:38:53.467Z,8.05
2023-03-06T22:41:22.260Z,8.05
2023-03-06T22:43:50.680Z,8.05
2023-03-06T22:46:18.996Z,8.06
2023-03-06T22:48:46.997Z,8.07
2023-03-06T22:51:16.193Z,8.08
2023-03-06T22:53:45.300Z,8.09
2023-03-06T22:56:14.614Z,8.10
2023-03-06T22:58:44.974Z,8.11
2023-03-06T23:01:20.872Z,8.11
2023-03-06T23:03:50.513Z,8.10
2023-03-06T23:06:20.241Z,8.11
2023-03-06T23:08:49.625Z,8.13
2023-03-06T23:11:19.836Z,8.14
2023-03-06T23:14:06.325Z,8.15
2023-03-06T23:16:53.247Z,8.17
2023-03-06T23:19:39.542Z,8.17
2023-03-06T23:22:26.041Z,8.19
2023-03-06T23:25:12.441Z,8.20
2023-03-06T23:27:41.346Z,8.22
2023-03-06T23:30:10.024Z,8.23
2023-03-06T23:32:38.228Z,8.25
2023-03-06T23:35:07.646Z,8.26
2023-03-06T23:37:35.892Z,8.27
2023-03-06T23:40:08.001Z,8.29
2023-03-06T23:42:36.240Z,8.30
2023-03-06T23:45:04.424Z,8.32
2023-03-06T23:47:33.313Z,8.34
2023-03-06T23:50:01.320Z,8.35
2023-03-06T23:52:29.360Z,8.35
2023-03-06T23:54:57.543Z,8.36
2023-03-06T23:57:25.721Z,8.38
2023-03-06T23:59:53.705Z,8.39
